Holyoke, CO (80734)

11:26 AM MDT on August 30, 2015 (GMT -0600)
Holyoke Municipal | | Change Station
CLOSE
Current Station
Airport
Location: Holyoke AP, Holyoke, CO,
Elevation: 3730 ft
Nearby Weather Stations

Elev 3730 ft 40.57 °N, 102.28 °W | Updated 11 minutes ago

Clear
Clear
88 °F
Feels Like 88 °F
N
15
Wind Variable Wind from South

Today
High -- | Low -- °F
--% Chance of Precip.
Yesterday
High -- | Low -- °F
Precip. -- in
6:14 AM 7:24 PM
Full, 99% visible
Pressure 30.03 in
Visibility 10.0 miles
Clouds Clear
Dew Point 48 °F
Humidity 25%
Rainfall 0.00 in
Snow Depth Not available.
UV 9 out of 12
Pollen 10.80 out of 12
Air Quality Not available.
Flu Activity Not available.
METAR KHEQ 301715Z AUTO 19013KT 10SM CLR 31/09 A3003 RMK AO2
Pressure 30.03 in
Visibility 10.0 miles
Clouds Clear
Dew Point 48 °F
Humidity 25%
Rainfall 0.00 in
Snow Depth Not available.
UV 9 out of 12
Pollen 10.80 out of 12
Air Quality Not available.
Flu Activity Not available.
METAR KHEQ 301715Z AUTO 19013KT 10SM CLR 31/09 A3003 RMK AO2

10-Day Weather Forecast

×

Almanac

Astronomy

Aug. 30, 2015 Rise Set
Actual Time
Civil Twilight
Nautical Twilight
Astronomical Twilight
Moon
Length of Visible Light
Length of Day
Tomorrow will be .
, % of the Moon is Illuminated

Today's Extremes

State Highs State Lows

Community

WunderPhotos

Upload Photos

1,851,014 photos uploaded!

WunderBlogs® & News

Nearby

Air Quality

  Air Quality AQ Index Pollutant
Not available.

Snow Depth

Station Depth Elevation

Earthquake Activity

City Distance Mag. Time & Date
Minimum magnitude displayed is 2.5.

Coastal Water Temperatures

Place Temperature

Stations

Nearby Weather Stations

Station Location Temp. Windchill Dew Point Humidity Wind Precip. Elev Updated Type